sensor_id;sensor_type;location;lat;lon;timestamp;pressure;altitude;pressure_sealevel;temperature;humidity
15604;BME280;7902;49.042;9.092;2024-01-30T00:02:12;100448.81;;;6.10;65.66
15604;BME280;7902;49.042;9.092;2024-01-30T00:04:38;100454.03;;;6.10;65.77
15604;BME280;7902;49.042;9.092;2024-01-30T00:07:03;100454.31;;;6.01;65.74
15604;BME280;7902;49.042;9.092;2024-01-30T00:09:29;100453.47;;;6.01;66.10
15604;BME280;7902;49.042;9.092;2024-01-30T00:11:56;100449.09;;;6.01;65.31
15604;BME280;7902;49.042;9.092;2024-01-30T00:14:22;100454.34;;;6.00;65.95
15604;BME280;7902;49.042;9.092;2024-01-30T00:16:48;100450.91;;;5.99;65.55
15604;BME280;7902;49.042;9.092;2024-01-30T00:19:14;100456.97;;;6.00;65.69
15604;BME280;7902;49.042;9.092;2024-01-30T00:21:40;100462.28;;;5.97;65.59
15604;BME280;7902;49.042;9.092;2024-01-30T00:24:06;100457.94;;;5.97;65.24
15604;BME280;7902;49.042;9.092;2024-01-30T00:26:32;100453.69;;;5.93;65.90
15604;BME280;7902;49.042;9.092;2024-01-30T00:28:58;100452.88;;;5.93;65.86
15604;BME280;7902;49.042;9.092;2024-01-30T00:31:24;100454.34;;;6.00;65.21
15604;BME280;7902;49.042;9.092;2024-01-30T00:33:50;100457.72;;;6.03;65.01
15604;BME280;7902;49.042;9.092;2024-01-30T00:36:16;100459.38;;;6.06;65.83
15604;BME280;7902;49.042;9.092;2024-01-30T00:38:42;100461.03;;;6.08;65.63
15604;BME280;7902;49.042;9.092;2024-01-30T00:41:08;100453.34;;;6.04;65.37
15604;BME280;7902;49.042;9.092;2024-01-30T00:43:35;100456.06;;;6.01;65.70
15604;BME280;7902;49.042;9.092;2024-01-30T00:46:01;100460.25;;;6.06;65.65
15604;BME280;7902;49.042;9.092;2024-01-30T00:48:27;100466.31;;;6.07;65.76
15604;BME280;7902;49.042;9.092;2024-01-30T00:50:53;100466.31;;;6.07;65.42
15604;BME280;7902;49.042;9.092;2024-01-30T00:53:19;100461.28;;;6.01;65.74
15604;BME280;7902;49.042;9.092;2024-01-30T00:55:45;100456.94;;;6.01;65.42
15604;BME280;7902;49.042;9.092;2024-01-30T00:58:11;100467.28;;;6.03;65.42
15604;BME280;7902;49.042;9.092;2024-01-30T01:00:37;100464.53;;;6.07;65.12
15604;BME280;7902;49.042;9.092;2024-01-30T01:03:03;100453.31;;;6.05;64.80
15604;BME280;7902;49.042;9.092;2024-01-30T01:05:29;100455.09;;;6.03;65.91
15604;BME280;7902;49.042;9.092;2024-01-30T01:07:55;100461.03;;;6.08;65.46
15604;BME280;7902;49.042;9.092;2024-01-30T01:10:21;100460.16;;;6.08;65.44
15604;BME280;7902;49.042;9.092;2024-01-30T01:12:47;100459.53;;;6.01;65.24
15604;BME280;7902;49.042;9.092;2024-01-30T01:15:13;100465.78;;;5.96;65.39
15604;BME280;7902;49.042;9.092;2024-01-30T01:17:40;100463.34;;;5.91;65.86
15604;BME280;7902;49.042;9.092;2024-01-30T01:20:06;100464.19;;;5.92;65.07
15604;BME280;7902;49.042;9.092;2024-01-30T01:22:33;100472.00;;;5.92;65.96
15604;BME280;7902;49.042;9.092;2024-01-30T01:25:00;100468.53;;;5.91;65.47
15604;BME280;7902;49.042;9.092;2024-01-30T01:27:26;100464.25;;;5.89;65.27
15604;BME280;7902;49.042;9.092;2024-01-30T01:29:53;100462.72;;;5.82;65.75
15604;BME280;7902;49.042;9.092;2024-01-30T01:32:19;100456.91;;;5.73;65.43
15604;BME280;7902;49.042;9.092;2024-01-30T01:34:45;100465.63;;;5.72;65.87
15604;BME280;7902;49.042;9.092;2024-01-30T01:37:11;100466.53;;;5.71;65.70
15604;BME280;7902;49.042;9.092;2024-01-30T01:39:37;100463.19;;;5.66;65.12
15604;BME280;7902;49.042;9.092;2024-01-30T01:42:03;100465.03;;;5.64;65.50
15604;BME280;7902;49.042;9.092;2024-01-30T01:44:29;100463.31;;;5.63;65.81
15604;BME280;7902;49.042;9.092;2024-01-30T01:46:56;100459.81;;;5.64;65.82
15604;BME280;7902;49.042;9.092;2024-01-30T01:49:24;100467.78;;;5.60;66.10
15604;BME280;7902;49.042;9.092;2024-01-30T01:51:51;100458.16;;;5.60;65.74
15604;BME280;7902;49.042;9.092;2024-01-30T01:54:19;100465.16;;;5.60;65.99
15604;BME280;7902;49.042;9.092;2024-01-30T01:56:46;100461.56;;;5.64;65.36
15604;BME280;7902;49.042;9.092;2024-01-30T01:59:12;100462.41;;;5.64;65.38
15604;BME280;7902;49.042;9.092;2024-01-30T02:01:38;100462.50;;;5.61;66.03
15604;BME280;7902;49.042;9.092;2024-01-30T02:04:07;100453.88;;;5.59;65.59
15604;BME280;7902;49.042;9.092;2024-01-30T02:06:34;100463.50;;;5.57;65.38
15604;BME280;7902;49.042;9.092;2024-01-30T02:09:00;100458.38;;;5.54;65.34
15604;BME280;7902;49.042;9.092;2024-01-30T02:11:27;100463.50;;;5.57;65.33
15604;BME280;7902;49.042;9.092;2024-01-30T02:13:53;100465.38;;;5.52;65.38
15604;BME280;7902;49.042;9.092;2024-01-30T02:16:19;100466.09;;;5.57;65.58
15604;BME280;7902;49.042;9.092;2024-01-30T02:18:45;100472.31;;;5.53;65.35
15604;BME280;7902;49.042;9.092;2024-01-30T02:21:14;100463.63;;;5.53;66.06
15604;BME280;7902;49.042;9.092;2024-01-30T02:23:41;100462.63;;;5.57;66.26
15604;BME280;7902;49.042;9.092;2024-01-30T02:26:08;100459.31;;;5.52;66.29
15604;BME280;7902;49.042;9.092;2024-01-30T02:28:34;100463.44;;;5.59;65.47
15604;BME280;7902;49.042;9.092;2024-01-30T02:31:00;100466.22;;;5.53;65.79
15604;BME280;7902;49.042;9.092;2024-01-30T02:33:26;100461.88;;;5.53;65.97
15604;BME280;7902;49.042;9.092;2024-01-30T02:35:52;100456.78;;;5.50;66.10
15604;BME280;7902;49.042;9.092;2024-01-30T02:38:17;100457.72;;;5.46;65.48
15604;BME280;7902;49.042;9.092;2024-01-30T02:40:44;100458.66;;;5.45;66.09
15604;BME280;7902;49.042;9.092;2024-01-30T02:43:10;100460.41;;;5.45;65.32
15604;BME280;7902;49.042;9.092;2024-01-30T02:45:36;100456.91;;;5.46;65.95
15604;BME280;7902;49.042;9.092;2024-01-30T02:48:02;100461.31;;;5.44;65.92
15604;BME280;7902;49.042;9.092;2024-01-30T02:50:28;100462.06;;;5.47;65.34
15604;BME280;7902;49.042;9.092;2024-01-30T02:52:53;100448.59;;;5.61;65.46
15604;BME280;7902;49.042;9.092;2024-01-30T02:55:19;100461.41;;;5.68;65.78
15604;BME280;7902;49.042;9.092;2024-01-30T02:57:45;100456.00;;;5.74;65.42
15604;BME280;7902;49.042;9.092;2024-01-30T03:00:12;100459.97;;;5.88;65.38
15604;BME280;7902;49.042;9.092;2024-01-30T03:02:37;100455.56;;;5.90;64.85
15604;BME280;7902;49.042;9.092;2024-01-30T03:05:07;100457.06;;;5.97;65.13
15604;BME280;7902;49.042;9.092;2024-01-30T03:07:33;100453.56;;;5.98;64.50
15604;BME280;7902;49.042;9.092;2024-01-30T03:09:59;100449.66;;;6.11;64.21
15604;BME280;7902;49.042;9.092;2024-01-30T03:12:25;100454.38;;;6.26;64.46
15604;BME280;7902;49.042;9.092;2024-01-30T03:14:51;100447.50;;;6.24;64.81
15604;BME280;7902;49.042;9.092;2024-01-30T03:17:17;100454.16;;;6.32;63.79
15604;BME280;7902;49.042;9.092;2024-01-30T03:19:43;100451.06;;;6.46;63.57
15604;BME280;7902;49.042;9.092;2024-01-30T03:22:08;100450.66;;;6.58;63.31
15604;BME280;7902;49.042;9.092;2024-01-30T03:24:34;100459.13;;;6.65;63.56
15604;BME280;7902;49.042;9.092;2024-01-30T03:27:00;100454.53;;;6.71;62.81
15604;BME280;7902;49.042;9.092;2024-01-30T03:29:27;100459.78;;;6.71;62.87
15604;BME280;7902;49.042;9.092;2024-01-30T03:31:52;100455.28;;;6.75;62.74
15604;BME280;7902;49.042;9.092;2024-01-30T03:34:18;100448.66;;;6.65;63.70
15604;BME280;7902;49.042;9.092;2024-01-30T03:36:44;100451.66;;;6.79;63.37
15604;BME280;7902;49.042;9.092;2024-01-30T03:39:10;100454.72;;;6.67;63.09
15604;BME280;7902;49.042;9.092;2024-01-30T03:41:36;100449.56;;;6.88;62.86
15604;BME280;7902;49.042;9.092;2024-01-30T03:44:02;100452.47;;;6.81;62.59
15604;BME280;7902;49.042;9.092;2024-01-30T03:46:28;100457.41;;;6.88;62.80
15604;BME280;7902;49.042;9.092;2024-01-30T03:48:54;100454.78;;;6.88;62.32
15604;BME280;7902;49.042;9.092;2024-01-30T03:51:20;100454.19;;;6.82;62.91
15604;BME280;7902;49.042;9.092;2024-01-30T03:53:46;100459.59;;;6.76;63.49
15604;BME280;7902;49.042;9.092;2024-01-30T03:56:12;100456.09;;;6.77;63.21
15604;BME280;7902;49.042;9.092;2024-01-30T03:58:41;100450.63;;;6.83;62.37
15604;BME280;7902;49.042;9.092;2024-01-30T04:01:07;100445.19;;;6.89;62.94
15604;BME280;7902;49.042;9.092;2024-01-30T04:03:33;100449.34;;;6.94;62.68
15604;BME280;7902;49.042;9.092;2024-01-30T04:05:59;100447.13;;;6.84;62.77
15604;BME280;7902;49.042;9.092;2024-01-30T04:08:25;100453.09;;;6.87;63.15
15604;BME280;7902;49.042;9.092;2024-01-30T04:10:51;100449.31;;;6.96;62.60
15604;BME280;7902;49.042;9.092;2024-01-30T04:13:17;100447.72;;;6.92;62.74
15604;BME280;7902;49.042;9.092;2024-01-30T04:15:42;100447.03;;;6.87;63.16
15604;BME280;7902;49.042;9.092;2024-01-30T04:18:08;100452.59;;;6.78;62.95
15604;BME280;7902;49.042;9.092;2024-01-30T04:20:34;100444.06;;;6.73;63.15
15604;BME280;7902;49.042;9.092;2024-01-30T04:23:00;100450.88;;;6.77;63.03
15604;BME280;7902;49.042;9.092;2024-01-30T04:25:26;100443.81;;;6.79;63.68
15604;BME280;7902;49.042;9.092;2024-01-30T04:27:52;100447.38;;;6.78;63.56
15604;BME280;7902;49.042;9.092;2024-01-30T04:30:18;100434.31;;;6.78;63.16
15604;BME280;7902;49.042;9.092;2024-01-30T04:32:44;100447.81;;;6.89;62.86
15604;BME280;7902;49.042;9.092;2024-01-30T04:35:10;100450.75;;;6.80;63.56
15604;BME280;7902;49.042;9.092;2024-01-30T04:37:36;100442.22;;;6.75;63.67
15604;BME280;7902;49.042;9.092;2024-01-30T04:40:02;100442.34;;;6.72;63.47
15604;BME280;7902;49.042;9.092;2024-01-30T04:42:28;100447.78;;;6.66;63.20
15604;BME280;7902;49.042;9.092;2024-01-30T04:44:54;100459.06;;;6.66;63.42
15604;BME280;7902;49.042;9.092;2024-01-30T04:47:20;100453.97;;;6.63;63.43
15604;BME280;7902;49.042;9.092;2024-01-30T04:49:46;100452.94;;;6.67;63.54
15604;BME280;7902;49.042;9.092;2024-01-30T04:52:12;100457.47;;;6.62;63.23
15604;BME280;7902;49.042;9.092;2024-01-30T04:54:38;100460.78;;;6.67;63.76
15604;BME280;7902;49.042;9.092;2024-01-30T04:57:04;100453.00;;;6.66;63.22
15604;BME280;7902;49.042;9.092;2024-01-30T04:59:34;100456.34;;;6.69;63.65
15604;BME280;7902;49.042;9.092;2024-01-30T05:02:00;100468.34;;;6.75;63.22
15604;BME280;7902;49.042;9.092;2024-01-30T05:04:25;100459.56;;;6.77;63.37
15604;BME280;7902;49.042;9.092;2024-01-30T05:06:51;100459.47;;;6.79;62.80
15604;BME280;7902;49.042;9.092;2024-01-30T05:09:17;100464.63;;;6.82;62.81
15604;BME280;7902;49.042;9.092;2024-01-30T05:11:44;100457.81;;;6.78;63.25
15604;BME280;7902;49.042;9.092;2024-01-30T05:14:10;100461.63;;;6.68;63.46
15604;BME280;7902;49.042;9.092;2024-01-30T05:16:37;100462.81;;;6.59;63.31
15604;BME280;7902;49.042;9.092;2024-01-30T05:19:03;100465.31;;;6.62;63.21
15604;BME280;7902;49.042;9.092;2024-01-30T05:21:29;100462.91;;;6.56;63.86
15604;BME280;7902;49.042;9.092;2024-01-30T05:23:55;100469.78;;;6.58;63.30
15604;BME280;7902;49.042;9.092;2024-01-30T05:26:21;100468.78;;;6.63;63.20
15604;BME280;7902;49.042;9.092;2024-01-30T05:28:48;100467.91;;;6.62;63.49
15604;BME280;7902;49.042;9.092;2024-01-30T05:31:14;100476.69;;;6.59;63.51
15604;BME280;7902;49.042;9.092;2024-01-30T05:33:40;100481.81;;;6.63;63.48
15604;BME280;7902;49.042;9.092;2024-01-30T05:36:06;100477.31;;;6.68;63.17
15604;BME280;7902;49.042;9.092;2024-01-30T05:38:32;100477.50;;;6.61;63.79
15604;BME280;7902;49.042;9.092;2024-01-30T05:40:58;100482.53;;;6.68;63.61
15604;BME280;7902;49.042;9.092;2024-01-30T05:43:24;100483.63;;;6.60;63.31
15604;BME280;7902;49.042;9.092;2024-01-30T05:45:51;100478.47;;;6.59;63.73
15604;BME280;7902;49.042;9.092;2024-01-30T05:48:17;100482.03;;;6.56;63.88
15604;BME280;7902;49.042;9.092;2024-01-30T05:50:43;100474.00;;;6.63;63.89
15604;BME280;7902;49.042;9.092;2024-01-30T05:53:11;100480.22;;;6.58;63.31
15604;BME280;7902;49.042;9.092;2024-01-30T05:55:37;100483.69;;;6.59;63.33
15604;BME280;7902;49.042;9.092;2024-01-30T05:58:03;100486.44;;;6.54;63.51
15604;BME280;7902;49.042;9.092;2024-01-30T06:00:29;100500.41;;;6.53;63.87
15604;BME280;7902;49.042;9.092;2024-01-30T06:02:55;100494.50;;;6.48;64.39
15604;BME280;7902;49.042;9.092;2024-01-30T06:05:21;100492.19;;;6.39;63.84
15604;BME280;7902;49.042;9.092;2024-01-30T06:07:47;100497.19;;;6.45;63.62
15604;BME280;7902;49.042;9.092;2024-01-30T06:10:13;100485.91;;;6.45;63.84
15604;BME280;7902;49.042;9.092;2024-01-30T06:12:39;100495.66;;;6.40;64.46
15604;BME280;7902;49.042;9.092;2024-01-30T06:15:05;100494.53;;;6.47;63.48
15604;BME280;7902;49.042;9.092;2024-01-30T06:17:32;100491.75;;;6.51;63.35
15604;BME280;7902;49.042;9.092;2024-01-30T06:19:58;100484.84;;;6.50;64.17
15604;BME280;7902;49.042;9.092;2024-01-30T06:22:25;100485.81;;;6.48;63.62
15604;BME280;7902;49.042;9.092;2024-01-30T06:24:50;100483.97;;;6.50;63.69
15604;BME280;7902;49.042;9.092;2024-01-30T06:27:16;100482.03;;;6.56;63.95
15604;BME280;7902;49.042;9.092;2024-01-30T06:29:43;100484.84;;;6.50;64.19
15604;BME280;7902;49.042;9.092;2024-01-30T06:32:09;100486.69;;;6.47;63.72
15604;BME280;7902;49.042;9.092;2024-01-30T06:34:35;100484.75;;;6.53;63.87
15604;BME280;7902;49.042;9.092;2024-01-30T06:37:01;100480.69;;;6.45;63.69
15604;BME280;7902;49.042;9.092;2024-01-30T06:39:27;100487.56;;;6.47;63.65
15604;BME280;7902;49.042;9.092;2024-01-30T06:41:53;100477.13;;;6.47;64.11
15604;BME280;7902;49.042;9.092;2024-01-30T06:44:18;100481.22;;;6.54;63.84
15604;BME280;7902;49.042;9.092;2024-01-30T06:46:44;100485.34;;;6.61;63.23
15604;BME280;7902;49.042;9.092;2024-01-30T06:49:10;100489.00;;;6.56;63.31
15604;BME280;7902;49.042;9.092;2024-01-30T06:51:36;100486.44;;;6.54;63.50
15604;BME280;7902;49.042;9.092;2024-01-30T06:54:02;100491.75;;;6.51;63.95
15604;BME280;7902;49.042;9.092;2024-01-30T06:56:28;100494.34;;;6.53;63.92
15604;BME280;7902;49.042;9.092;2024-01-30T06:58:54;100489.84;;;6.56;63.41
15604;BME280;7902;49.042;9.092;2024-01-30T07:01:20;100491.91;;;6.47;64.11
15604;BME280;7902;49.042;9.092;2024-01-30T07:03:46;100492.75;;;6.49;63.45
15604;BME280;7902;49.042;9.092;2024-01-30T07:06:12;100494.22;;;6.56;63.57
15604;BME280;7902;49.042;9.092;2024-01-30T07:08:38;100496.88;;;6.54;63.67
15604;BME280;7902;49.042;9.092;2024-01-30T07:11:05;100489.03;;;6.54;63.26
15604;BME280;7902;49.042;9.092;2024-01-30T07:13:32;100488.97;;;6.57;63.41
15604;BME280;7902;49.042;9.092;2024-01-30T07:15:58;100487.34;;;6.53;63.78
15604;BME280;7902;49.042;9.092;2024-01-30T07:18:24;100489.91;;;6.55;63.71
15604;BME280;7902;49.042;9.092;2024-01-30T07:20:50;100494.38;;;6.51;63.55
15604;BME280;7902;49.042;9.092;2024-01-30T07:23:16;100503.81;;;6.55;63.63
15604;BME280;7902;49.042;9.092;2024-01-30T07:25:46;100496.66;;;6.60;63.66
15604;BME280;7902;49.042;9.092;2024-01-30T07:28:14;100497.56;;;6.59;63.05
15604;BME280;7902;49.042;9.092;2024-01-30T07:30:42;100493.16;;;6.61;63.61
15604;BME280;7902;49.042;9.092;2024-01-30T07:33:08;100490.66;;;6.58;63.65
15604;BME280;7902;49.042;9.092;2024-01-30T07:35:35;100497.41;;;6.64;63.20
15604;BME280;7902;49.042;9.092;2024-01-30T07:38:01;100501.81;;;6.64;63.74
15604;BME280;7902;49.042;9.092;2024-01-30T07:40:27;100492.72;;;6.74;62.98
15604;BME280;7902;49.042;9.092;2024-01-30T07:42:54;100499.84;;;6.69;62.86
15604;BME280;7902;49.042;9.092;2024-01-30T07:45:20;100501.38;;;6.76;63.47
15604;BME280;7902;49.042;9.092;2024-01-30T07:47:49;100498.03;;;6.72;62.96
15604;BME280;7902;49.042;9.092;2024-01-30T07:50:15;100494.25;;;6.81;62.57
15604;BME280;7902;49.042;9.092;2024-01-30T07:52:42;100495.81;;;6.85;63.03
15604;BME280;7902;49.042;9.092;2024-01-30T07:55:08;100502.09;;;6.79;63.40
15604;BME280;7902;49.042;9.092;2024-01-30T07:57:34;100488.78;;;6.62;63.23
15604;BME280;7902;49.042;9.092;2024-01-30T08:00:03;100500.50;;;6.75;63.04
15604;BME280;7902;49.042;9.092;2024-01-30T08:02:31;100498.47;;;6.83;63.02
15604;BME280;7902;49.042;9.092;2024-01-30T08:04:57;100497.31;;;6.67;62.86
15604;BME280;7902;49.042;9.092;2024-01-30T08:07:23;100494.44;;;6.75;62.84
15604;BME280;7902;49.042;9.092;2024-01-30T08:09:49;100498.72;;;6.77;62.85
15604;BME280;7902;49.042;9.092;2024-01-30T08:12:14;100497.25;;;6.93;62.78
15604;BME280;7902;49.042;9.092;2024-01-30T08:14:41;100506.06;;;6.91;63.04
15604;BME280;7902;49.042;9.092;2024-01-30T08:17:07;100511.50;;;6.85;63.29
15604;BME280;7902;49.042;9.092;2024-01-30T08:19:33;100506.06;;;6.91;63.05
15604;BME280;7902;49.042;9.092;2024-01-30T08:21:59;100513.78;;;6.69;63.19
15604;BME280;7902;49.042;9.092;2024-01-30T08:24:25;100509.03;;;7.05;62.78
15604;BME280;7902;49.042;9.092;2024-01-30T08:26:51;100503.69;;;6.83;63.21
15604;BME280;7902;49.042;9.092;2024-01-30T08:29:17;100515.31;;;6.99;62.48
15604;BME280;7902;49.042;9.092;2024-01-30T08:31:43;100521.00;;;6.87;63.19
15604;BME280;7902;49.042;9.092;2024-01-30T08:34:09;100512.75;;;6.98;62.31
15604;BME280;7902;49.042;9.092;2024-01-30T08:36:36;100515.38;;;6.98;62.73
15604;BME280;7902;49.042;9.092;2024-01-30T08:39:02;100527.97;;;6.87;62.86
15604;BME280;7902;49.042;9.092;2024-01-30T08:41:28;100525.03;;;6.96;62.61
15604;BME280;7902;49.042;9.092;2024-01-30T08:43:54;100521.41;;;7.00;62.89
15604;BME280;7902;49.042;9.092;2024-01-30T08:46:20;100516.88;;;7.05;62.58
15604;BME280;7902;49.042;9.092;2024-01-30T08:48:46;100519.03;;;6.92;62.93
15604;BME280;7902;49.042;9.092;2024-01-30T08:51:13;100522.69;;;6.88;63.41
15604;BME280;7902;49.042;9.092;2024-01-30T08:53:41;100518.31;;;6.89;63.62
15604;BME280;7902;49.042;9.092;2024-01-30T08:56:07;100526.88;;;6.92;62.93
15604;BME280;7902;49.042;9.092;2024-01-30T08:58:33;100521.94;;;7.10;62.81
15604;BME280;7902;49.042;9.092;2024-01-30T09:00:58;100528.38;;;6.99;63.05
15604;BME280;7902;49.042;9.092;2024-01-30T09:03:24;100527.69;;;7.19;63.07
15604;BME280;7902;49.042;9.092;2024-01-30T09:05:51;100523.22;;;6.98;62.37
15604;BME280;7902;49.042;9.092;2024-01-30T09:08:17;100524.25;;;7.17;62.31
15604;BME280;7902;49.042;9.092;2024-01-30T09:10:42;100523.66;;;7.11;63.14
15604;BME280;7902;49.042;9.092;2024-01-30T09:13:10;100527.41;;;7.02;63.28
15604;BME280;7902;49.042;9.092;2024-01-30T09:15:35;100538.34;;;7.13;62.44
15604;BME280;7902;49.042;9.092;2024-01-30T09:18:02;100530.72;;;7.07;62.95
15604;BME280;7902;49.042;9.092;2024-01-30T09:20:27;100533.31;;;7.07;62.92
15604;BME280;7902;49.042;9.092;2024-01-30T09:22:53;100537.13;;;7.23;62.54
15604;BME280;7902;49.042;9.092;2024-01-30T09:25:19;100533.00;;;7.16;63.04
15604;BME280;7902;49.042;9.092;2024-01-30T09:27:46;100532.16;;;7.16;63.28
15604;BME280;7902;49.042;9.092;2024-01-30T09:30:12;100532.06;;;7.19;62.44
15604;BME280;7902;49.042;9.092;2024-01-30T09:32:39;100537.44;;;7.14;62.89
15604;BME280;7902;49.042;9.092;2024-01-30T09:35:05;100535.78;;;7.12;62.98
15604;BME280;7902;49.042;9.092;2024-01-30T09:37:31;100531.19;;;7.18;63.20
15604;BME280;7902;49.042;9.092;2024-01-30T09:39:57;100535.22;;;7.27;63.01
15604;BME280;7902;49.042;9.092;2024-01-30T09:42:33;100530.75;;;7.30;62.61
15604;BME280;7902;49.042;9.092;2024-01-30T09:45:01;100541.44;;;7.24;62.74
15604;BME280;7902;49.042;9.092;2024-01-30T09:47:27;100541.38;;;7.26;62.55
15604;BME280;7902;49.042;9.092;2024-01-30T09:49:53;100540.75;;;7.19;62.91
15604;BME280;7902;49.042;9.092;2024-01-30T09:52:19;100547.22;;;7.32;62.98
15604;BME280;7902;49.042;9.092;2024-01-30T09:54:45;100544.75;;;7.29;63.00
15604;BME280;7902;49.042;9.092;2024-01-30T09:57:11;100550.69;;;7.33;62.60
15604;BME280;7902;49.042;9.092;2024-01-30T09:59:37;100544.75;;;7.29;62.94
15604;BME280;7902;49.042;9.092;2024-01-30T10:02:03;100556.09;;;7.28;63.06
15604;BME280;7902;49.042;9.092;2024-01-30T10:04:30;100555.75;;;7.37;62.96
15604;BME280;7902;49.042;9.092;2024-01-30T10:06:56;100542.91;;;7.31;62.88
15604;BME280;7902;49.042;9.092;2024-01-30T10:09:22;100548.03;;;7.34;62.65
15604;BME280;7902;49.042;9.092;2024-01-30T10:11:48;100548.88;;;7.35;63.11
15604;BME280;7902;49.042;9.092;2024-01-30T10:14:15;100546.34;;;7.33;62.92
15604;BME280;7902;49.042;9.092;2024-01-30T10:16:41;100540.94;;;7.38;62.75
15604;BME280;7902;49.042;9.092;2024-01-30T10:19:07;100547.41;;;7.51;63.03
15604;BME280;7902;49.042;9.092;2024-01-30T10:21:33;100540.56;;;7.48;63.37
15604;BME280;7902;49.042;9.092;2024-01-30T10:23:59;100533.69;;;7.44;62.79
15604;BME280;7902;49.042;9.092;2024-01-30T10:26:25;100531.03;;;7.46;63.11
15604;BME280;7902;49.042;9.092;2024-01-30T10:28:51;100529.34;;;7.45;62.84
15604;BME280;7902;49.042;9.092;2024-01-30T10:31:17;100520.41;;;7.50;62.85
15604;BME280;7902;49.042;9.092;2024-01-30T10:33:44;100523.16;;;7.47;62.89
15604;BME280;7902;49.042;9.092;2024-01-30T10:36:13;100524.56;;;7.56;62.80
15604;BME280;7902;49.042;9.092;2024-01-30T10:38:42;100528.03;;;7.57;62.84
15604;BME280;7902;49.042;9.092;2024-01-30T10:41:10;100518.44;;;7.57;63.11
15604;BME280;7902;49.042;9.092;2024-01-30T10:43:41;100519.38;;;7.55;62.91
15604;BME280;7902;49.042;9.092;2024-01-30T10:46:23;100523.50;;;7.62;62.85
15604;BME280;7902;49.042;9.092;2024-01-30T10:48:58;100522.41;;;7.67;62.92
15604;BME280;7902;49.042;9.092;2024-01-30T10:51:27;100535.22;;;7.73;63.71
15604;BME280;7902;49.042;9.092;2024-01-30T10:53:55;100527.72;;;7.87;63.58
15604;BME280;7902;49.042;9.092;2024-01-30T10:56:22;100530.28;;;7.89;63.93
15604;BME280;7902;49.042;9.092;2024-01-30T10:58:49;100531.06;;;7.91;63.90
15604;BME280;7902;49.042;9.092;2024-01-30T11:01:15;100524.81;;;7.95;63.87
15604;BME280;7902;49.042;9.092;2024-01-30T11:03:42;100530.72;;;8.00;63.50
15604;BME280;7902;49.042;9.092;2024-01-30T11:06:11;100526.03;;;8.08;62.71
15604;BME280;7902;49.042;9.092;2024-01-30T11:08:39;100526.75;;;7.90;63.75
15604;BME280;7902;49.042;9.092;2024-01-30T11:11:09;100521.16;;;7.99;63.10
15604;BME280;7902;49.042;9.092;2024-01-30T11:13:35;100526.50;;;7.96;62.15
15604;BME280;7902;49.042;9.092;2024-01-30T11:16:05;100525.72;;;7.94;62.67
15604;BME280;7902;49.042;9.092;2024-01-30T11:18:32;100524.19;;;7.88;62.65
15604;BME280;7902;49.042;9.092;2024-01-30T11:20:59;100522.56;;;7.86;62.84
15604;BME280;7902;49.042;9.092;2024-01-30T11:23:27;100524.31;;;7.85;62.56
15604;BME280;7902;49.042;9.092;2024-01-30T11:25:53;100520.50;;;7.94;62.88
15604;BME280;7902;49.042;9.092;2024-01-30T11:28:23;100521.94;;;8.01;62.84
15604;BME280;7902;49.042;9.092;2024-01-30T11:30:49;100508.63;;;8.07;63.34
15604;BME280;7902;49.042;9.092;2024-01-30T11:33:30;100515.63;;;8.07;64.01
15604;BME280;7902;49.042;9.092;2024-01-30T11:36:00;100516.47;;;8.07;64.37
15604;BME280;7902;49.042;9.092;2024-01-30T11:38:27;100511.78;;;8.15;63.12
15604;BME280;7902;49.042;9.092;2024-01-30T11:40:56;100507.53;;;8.13;62.69
15604;BME280;7902;49.042;9.092;2024-01-30T11:43:44;100508.56;;;8.09;62.50
15604;BME280;7902;49.042;9.092;2024-01-30T11:46:15;100506.16;;;8.24;62.42
15604;BME280;7902;49.042;9.092;2024-01-30T11:48:41;100505.22;;;8.05;63.42
15604;BME280;7902;49.042;9.092;2024-01-30T11:51:09;100501.69;;;8.06;63.21
15604;BME280;7902;49.042;9.092;2024-01-30T11:53:52;100503.16;;;8.13;62.58
15604;BME280;7902;49.042;9.092;2024-01-30T12:00:34;100496.34;;;8.09;62.58
15604;BME280;7902;49.042;9.092;2024-01-30T12:03:05;100488.38;;;8.12;62.72
15604;BME280;7902;49.042;9.092;2024-01-30T12:05:35;100488.91;;;8.20;63.55
15604;BME280;7902;49.042;9.092;2024-01-30T12:08:02;100487.69;;;8.07;62.68
15604;BME280;7902;49.042;9.092;2024-01-30T12:10:31;100482.75;;;8.21;62.89
15604;BME280;7902;49.042;9.092;2024-01-30T12:13:03;100480.19;;;8.20;63.80
15604;BME280;7902;49.042;9.092;2024-01-30T12:15:39;100479.81;;;8.09;62.73
15604;BME280;7902;49.042;9.092;2024-01-30T12:18:10;100475.91;;;8.19;63.47
15604;BME280;7902;49.042;9.092;2024-01-30T12:20:39;100472.63;;;8.14;62.81
15604;BME280;7902;49.042;9.092;2024-01-30T12:23:05;100468.09;;;8.17;62.45
15604;BME280;7902;49.042;9.092;2024-01-30T12:25:34;100472.91;;;8.28;62.64
15604;BME280;7902;49.042;9.092;2024-01-30T12:28:04;100473.16;;;8.22;62.72
15604;BME280;7902;49.042;9.092;2024-01-30T12:30:31;100471.50;;;8.19;62.44
15604;BME280;7902;49.042;9.092;2024-01-30T12:33:15;100465.81;;;8.31;63.01
15604;BME280;7902;49.042;9.092;2024-01-30T12:35:52;100468.56;;;8.27;62.48
15604;BME280;7902;49.042;9.092;2024-01-30T12:38:19;100468.97;;;8.18;62.23
15604;BME280;7902;49.042;9.092;2024-01-30T12:40:47;100468.63;;;8.25;62.64
15604;BME280;7902;49.042;9.092;2024-01-30T12:43:13;100462.50;;;8.26;62.81
15604;BME280;7902;49.042;9.092;2024-01-30T12:45:41;100457.50;;;8.20;62.36
15604;BME280;7902;49.042;9.092;2024-01-30T12:48:10;100466.72;;;8.29;62.54
15604;BME280;7902;49.042;9.092;2024-01-30T12:50:36;100463.41;;;8.25;62.54
15604;BME280;7902;49.042;9.092;2024-01-30T12:53:08;100465.09;;;8.26;62.78
15604;BME280;7902;49.042;9.092;2024-01-30T12:55:35;100466.72;;;8.30;62.29
15604;BME280;7902;49.042;9.092;2024-01-30T12:58:01;100455.34;;;8.31;62.64
15604;BME280;7902;49.042;9.092;2024-01-30T13:00:27;100464.63;;;8.38;62.23
15604;BME280;7902;49.042;9.092;2024-01-30T13:02:53;100460.63;;;8.30;62.68
15604;BME280;7902;49.042;9.092;2024-01-30T13:05:19;100456.09;;;8.33;62.63
15604;BME280;7902;49.042;9.092;2024-01-30T13:07:48;100451.66;;;8.35;62.18
15604;BME280;7902;49.042;9.092;2024-01-30T13:10:14;100446.38;;;8.37;62.10
15604;BME280;7902;49.042;9.092;2024-01-30T13:12:46;100451.41;;;8.42;62.63